sensor_id;sensor_type;location;lat;lon;timestamp;P1;durP1;ratioP1;P2;durP2;ratioP2
56413;SDS011;42318;48.452;19.526;2022-08-19T00:03:30;8.97;;;6.70;;
56413;SDS011;42318;48.452;19.526;2022-08-19T00:11:01;7.33;;;6.63;;
56413;SDS011;42318;48.452;19.526;2022-08-19T00:18:32;7.03;;;6.30;;
56413;SDS011;42318;48.452;19.526;2022-08-19T00:26:04;9.20;;;6.82;;
56413;SDS011;42318;48.452;19.526;2022-08-19T00:33:35;7.32;;;6.55;;
56413;SDS011;42318;48.452;19.526;2022-08-19T00:41:07;7.78;;;6.75;;
56413;SDS011;42318;48.452;19.526;2022-08-19T00:48:39;8.10;;;6.88;;
56413;SDS011;42318;48.452;19.526;2022-08-19T00:56:09;6.83;;;6.13;;
56413;SDS011;42318;48.452;19.526;2022-08-19T01:03:40;8.03;;;7.13;;
56413;SDS011;42318;48.452;19.526;2022-08-19T01:11:11;7.83;;;7.10;;
56413;SDS011;42318;48.452;19.526;2022-08-19T01:18:42;8.98;;;6.35;;
56413;SDS011;42318;48.452;19.526;2022-08-19T01:26:18;10.23;;;6.50;;
56413;SDS011;42318;48.452;19.526;2022-08-19T01:33:53;9.55;;;7.03;;
56413;SDS011;42318;48.452;19.526;2022-08-19T01:41:25;7.90;;;6.90;;
56413;SDS011;42318;48.452;19.526;2022-08-19T01:48:56;7.53;;;6.63;;
56413;SDS011;42318;48.452;19.526;2022-08-19T01:56:27;6.90;;;6.20;;
56413;SDS011;42318;48.452;19.526;2022-08-19T02:03:58;9.30;;;6.43;;
56413;SDS011;42318;48.452;19.526;2022-08-19T02:11:32;6.93;;;5.97;;
56413;SDS011;42318;48.452;19.526;2022-08-19T02:19:04;7.88;;;6.55;;
56413;SDS011;42318;48.452;19.526;2022-08-19T02:26:35;9.83;;;6.67;;
56413;SDS011;42318;48.452;19.526;2022-08-19T02:34:06;8.45;;;6.70;;
56413;SDS011;42318;48.452;19.526;2022-08-19T02:41:37;8.77;;;6.10;;
56413;SDS011;42318;48.452;19.526;2022-08-19T02:49:08;8.37;;;6.67;;
56413;SDS011;42318;48.452;19.526;2022-08-19T02:56:39;7.17;;;6.47;;
56413;SDS011;42318;48.452;19.526;2022-08-19T03:04:12;8.32;;;6.45;;
56413;SDS011;42318;48.452;19.526;2022-08-19T03:11:44;6.88;;;5.97;;
56413;SDS011;42318;48.452;19.526;2022-08-19T03:19:16;6.80;;;6.10;;
56413;SDS011;42318;48.452;19.526;2022-08-19T03:26:52;8.73;;;6.18;;
56413;SDS011;42318;48.452;19.526;2022-08-19T03:34:28;7.18;;;6.45;;
56413;SDS011;42318;48.452;19.526;2022-08-19T03:42:01;7.97;;;6.15;;
56413;SDS011;42318;48.452;19.526;2022-08-19T03:49:33;7.82;;;6.15;;
56413;SDS011;42318;48.452;19.526;2022-08-19T03:57:05;6.93;;;5.97;;
56413;SDS011;42318;48.452;19.526;2022-08-19T04:04:37;9.18;;;6.05;;
56413;SDS011;42318;48.452;19.526;2022-08-19T04:12:09;7.28;;;5.82;;
56413;SDS011;42318;48.452;19.526;2022-08-19T04:19:40;7.13;;;6.00;;
56413;SDS011;42318;48.452;19.526;2022-08-19T04:27:13;9.05;;;5.75;;
56413;SDS011;42318;48.452;19.526;2022-08-19T04:34:44;6.72;;;5.65;;
56413;SDS011;42318;48.452;19.526;2022-08-19T04:42:15;6.30;;;5.63;;
56413;SDS011;42318;48.452;19.526;2022-08-19T04:50:07;6.20;;;5.47;;
56413;SDS011;42318;48.452;19.526;2022-08-19T04:57:40;6.53;;;5.75;;
56413;SDS011;42318;48.452;19.526;2022-08-19T05:05:11;6.67;;;5.57;;
56413;SDS011;42318;48.452;19.526;2022-08-19T05:12:42;8.23;;;6.80;;
56413;SDS011;42318;48.452;19.526;2022-08-19T05:20:14;6.47;;;5.60;;
56413;SDS011;42318;48.452;19.526;2022-08-19T05:28:03;7.50;;;6.00;;
56413;SDS011;42318;48.452;19.526;2022-08-19T05:35:33;9.33;;;5.63;;
56413;SDS011;42318;48.452;19.526;2022-08-19T05:43:06;8.15;;;5.85;;
56413;SDS011;42318;48.452;19.526;2022-08-19T05:50:39;8.35;;;6.68;;
56413;SDS011;42318;48.452;19.526;2022-08-19T05:58:11;6.20;;;5.57;;
56413;SDS011;42318;48.452;19.526;2022-08-19T06:05:41;6.10;;;5.50;;
56413;SDS011;42318;48.452;19.526;2022-08-19T06:13:12;6.10;;;5.30;;
56413;SDS011;42318;48.452;19.526;2022-08-19T06:20:43;6.53;;;5.80;;
56413;SDS011;42318;48.452;19.526;2022-08-19T06:37:56;6.32;;;5.60;;
56413;SDS011;42318;48.452;19.526;2022-08-19T06:45:27;9.13;;;6.30;;
56413;SDS011;42318;48.452;19.526;2022-08-19T06:52:58;7.10;;;5.77;;
56413;SDS011;42318;48.452;19.526;2022-08-19T07:00:30;7.28;;;6.07;;
56413;SDS011;42318;48.452;19.526;2022-08-19T07:08:00;6.87;;;5.90;;
56413;SDS011;42318;48.452;19.526;2022-08-19T07:15:32;8.75;;;5.75;;
56413;SDS011;42318;48.452;19.526;2022-08-19T07:23:03;8.17;;;5.73;;
56413;SDS011;42318;48.452;19.526;2022-08-19T07:30:35;6.90;;;5.30;;
56413;SDS011;42318;48.452;19.526;2022-08-19T07:38:07;8.48;;;5.78;;
56413;SDS011;42318;48.452;19.526;2022-08-19T07:45:37;7.40;;;6.20;;
56413;SDS011;42318;48.452;19.526;2022-08-19T07:53:08;6.00;;;5.17;;
56413;SDS011;42318;48.452;19.526;2022-08-19T08:00:39;7.50;;;5.57;;
56413;SDS011;42318;48.452;19.526;2022-08-19T08:08:11;7.38;;;5.13;;
56413;SDS011;42318;48.452;19.526;2022-08-19T08:16:01;6.03;;;5.22;;
56413;SDS011;42318;48.452;19.526;2022-08-19T08:23:33;5.88;;;5.10;;
56413;SDS011;42318;48.452;19.526;2022-08-19T08:31:04;5.43;;;4.67;;
56413;SDS011;42318;48.452;19.526;2022-08-19T08:38:35;7.73;;;5.20;;
56413;SDS011;42318;48.452;19.526;2022-08-19T09:09:14;5.30;;;4.80;;
56413;SDS011;42318;48.452;19.526;2022-08-19T09:16:50;5.22;;;4.72;;
56413;SDS011;42318;48.452;19.526;2022-08-19T09:24:21;5.28;;;4.78;;
56413;SDS011;42318;48.452;19.526;2022-08-19T09:31:52;5.27;;;4.50;;
56413;SDS011;42318;48.452;19.526;2022-08-19T09:39:23;5.20;;;4.70;;
56413;SDS011;42318;48.452;19.526;2022-08-19T09:46:55;4.57;;;4.10;;
56413;SDS011;42318;48.452;19.526;2022-08-19T09:54:26;6.50;;;4.45;;
56413;SDS011;42318;48.452;19.526;2022-08-19T10:09:28;4.88;;;4.35;;
56413;SDS011;42318;48.452;19.526;2022-08-19T10:16:59;5.57;;;4.30;;
56413;SDS011;42318;48.452;19.526;2022-08-19T10:24:33;4.65;;;3.95;;
56413;SDS011;42318;48.452;19.526;2022-08-19T10:32:05;4.50;;;4.10;;
56413;SDS011;42318;48.452;19.526;2022-08-19T10:39:38;4.45;;;3.95;;
56413;SDS011;42318;48.452;19.526;2022-08-19T10:47:09;4.60;;;3.90;;
56413;SDS011;42318;48.452;19.526;2022-08-19T10:54:40;5.77;;;4.10;;
56413;SDS011;42318;48.452;19.526;2022-08-19T11:02:30;4.70;;;4.18;;
56413;SDS011;42318;48.452;19.526;2022-08-19T11:10:03;4.82;;;3.97;;
56413;SDS011;42318;48.452;19.526;2022-08-19T11:17:34;4.50;;;3.80;;
56413;SDS011;42318;48.452;19.526;2022-08-19T11:32:37;4.35;;;3.95;;
56413;SDS011;42318;48.452;19.526;2022-08-19T11:40:08;4.93;;;3.40;;
56413;SDS011;42318;48.452;19.526;2022-08-19T11:47:40;4.15;;;3.70;;
56413;SDS011;42318;48.452;19.526;2022-08-19T11:55:11;5.70;;;4.47;;
56413;SDS011;42318;48.452;19.526;2022-08-19T12:02:43;4.82;;;3.65;;
56413;SDS011;42318;48.452;19.526;2022-08-19T12:10:14;4.37;;;3.50;;
56413;SDS011;42318;48.452;19.526;2022-08-19T12:17:45;3.80;;;3.40;;
56413;SDS011;42318;48.452;19.526;2022-08-19T12:25:16;4.70;;;3.67;;
56413;SDS011;42318;48.452;19.526;2022-08-19T12:32:47;4.18;;;3.50;;
56413;SDS011;42318;48.452;19.526;2022-08-19T12:40:18;4.33;;;3.93;;
56413;SDS011;42318;48.452;19.526;2022-08-19T12:47:49;4.03;;;3.63;;
56413;SDS011;42318;48.452;19.526;2022-08-19T12:55:20;3.77;;;3.37;;
56413;SDS011;42318;48.452;19.526;2022-08-19T13:02:51;5.13;;;3.77;;
56413;SDS011;42318;48.452;19.526;2022-08-19T13:10:23;4.25;;;3.42;;
56413;SDS011;42318;48.452;19.526;2022-08-19T13:17:58;3.90;;;3.35;;
56413;SDS011;42318;48.452;19.526;2022-08-19T13:25:28;3.73;;;3.30;;
56413;SDS011;42318;48.452;19.526;2022-08-19T13:32:59;4.37;;;3.43;;
56413;SDS011;42318;48.452;19.526;2022-08-19T13:40:44;3.42;;;3.13;;
56413;SDS011;42318;48.452;19.526;2022-08-19T13:48:16;3.90;;;3.38;;
56413;SDS011;42318;48.452;19.526;2022-08-19T13:55:47;3.55;;;3.10;;
56413;SDS011;42318;48.452;19.526;2022-08-19T14:03:20;4.80;;;3.42;;
56413;SDS011;42318;48.452;19.526;2022-08-19T14:10:50;3.73;;;3.33;;
56413;SDS011;42318;48.452;19.526;2022-08-19T14:18:21;3.50;;;2.90;;
56413;SDS011;42318;48.452;19.526;2022-08-19T14:25:52;4.57;;;3.60;;
56413;SDS011;42318;48.452;19.526;2022-08-19T14:33:26;3.53;;;3.20;;
56413;SDS011;42318;48.452;19.526;2022-08-19T14:41:19;3.27;;;2.97;;
56413;SDS011;42318;48.452;19.526;2022-08-19T14:48:50;3.55;;;3.17;;
56413;SDS011;42318;48.452;19.526;2022-08-19T14:56:22;4.05;;;3.63;;
56413;SDS011;42318;48.452;19.526;2022-08-19T15:03:56;3.47;;;2.88;;
56413;SDS011;42318;48.452;19.526;2022-08-19T15:11:27;3.93;;;3.13;;
56413;SDS011;42318;48.452;19.526;2022-08-19T15:18:59;3.55;;;3.25;;
56413;SDS011;42318;48.452;19.526;2022-08-19T15:26:30;3.05;;;2.63;;
56413;SDS011;42318;48.452;19.526;2022-08-19T15:34:02;3.60;;;3.28;;
56413;SDS011;42318;48.452;19.526;2022-08-19T15:41:33;3.28;;;2.97;;
56413;SDS011;42318;48.452;19.526;2022-08-19T15:49:05;3.80;;;3.20;;
56413;SDS011;42318;48.452;19.526;2022-08-19T15:56:37;3.58;;;3.13;;
56413;SDS011;42318;48.452;19.526;2022-08-19T16:04:27;3.17;;;2.63;;
56413;SDS011;42318;48.452;19.526;2022-08-19T16:12:16;4.68;;;3.38;;
56413;SDS011;42318;48.452;19.526;2022-08-19T16:19:48;4.22;;;3.42;;
56413;SDS011;42318;48.452;19.526;2022-08-19T16:27:19;4.60;;;2.83;;
56413;SDS011;42318;48.452;19.526;2022-08-19T16:34:51;3.35;;;2.92;;
56413;SDS011;42318;48.452;19.526;2022-08-19T16:51:56;3.35;;;3.03;;
56413;SDS011;42318;48.452;19.526;2022-08-19T16:59:27;4.50;;;3.70;;
56413;SDS011;42318;48.452;19.526;2022-08-19T17:06:57;3.23;;;2.93;;
56413;SDS011;42318;48.452;19.526;2022-08-19T17:14:28;3.00;;;2.67;;
56413;SDS011;42318;48.452;19.526;2022-08-19T17:21:59;3.30;;;2.70;;
56413;SDS011;42318;48.452;19.526;2022-08-19T17:29:30;3.90;;;2.90;;
56413;SDS011;42318;48.452;19.526;2022-08-19T17:37:02;3.33;;;2.88;;
56413;SDS011;42318;48.452;19.526;2022-08-19T17:44:33;3.77;;;2.93;;
56413;SDS011;42318;48.452;19.526;2022-08-19T17:52:05;3.38;;;2.58;;
56413;SDS011;42318;48.452;19.526;2022-08-19T17:59:36;3.03;;;2.70;;
56413;SDS011;42318;48.452;19.526;2022-08-19T18:07:07;3.15;;;2.85;;
56413;SDS011;42318;48.452;19.526;2022-08-19T18:14:39;3.25;;;2.95;;
56413;SDS011;42318;48.452;19.526;2022-08-19T18:30:05;3.00;;;2.70;;
56413;SDS011;42318;48.452;19.526;2022-08-19T18:37:37;3.88;;;2.90;;
56413;SDS011;42318;48.452;19.526;2022-08-19T18:45:09;3.10;;;2.80;;
56413;SDS011;42318;48.452;19.526;2022-08-19T18:52:59;2.92;;;2.63;;
56413;SDS011;42318;48.452;19.526;2022-08-19T19:00:31;9.63;;;3.65;;
56413;SDS011;42318;48.452;19.526;2022-08-19T19:08:01;13.07;;;4.50;;
56413;SDS011;42318;48.452;19.526;2022-08-19T19:15:32;10.03;;;3.53;;
56413;SDS011;42318;48.452;19.526;2022-08-19T19:23:04;16.67;;;3.92;;
56413;SDS011;42318;48.452;19.526;2022-08-19T19:30:34;13.20;;;3.97;;
56413;SDS011;42318;48.452;19.526;2022-08-19T19:38:05;11.43;;;3.30;;
56413;SDS011;42318;48.452;19.526;2022-08-19T19:45:36;9.93;;;3.20;;
56413;SDS011;42318;48.452;19.526;2022-08-19T19:53:10;14.07;;;3.20;;
56413;SDS011;42318;48.452;19.526;2022-08-19T20:00:40;8.23;;;2.97;;
56413;SDS011;42318;48.452;19.526;2022-08-19T20:08:11;11.73;;;3.93;;
56413;SDS011;42318;48.452;19.526;2022-08-19T20:16:00;8.80;;;2.95;;
56413;SDS011;42318;48.452;19.526;2022-08-19T20:23:35;12.57;;;3.60;;
56413;SDS011;42318;48.452;19.526;2022-08-19T20:31:05;9.10;;;3.23;;
56413;SDS011;42318;48.452;19.526;2022-08-19T20:38:36;10.83;;;3.93;;
56413;SDS011;42318;48.452;19.526;2022-08-19T20:46:08;8.32;;;3.60;;
56413;SDS011;42318;48.452;19.526;2022-08-19T20:53:39;5.80;;;3.33;;
56413;SDS011;42318;48.452;19.526;2022-08-19T21:01:11;6.75;;;3.13;;
56413;SDS011;42318;48.452;19.526;2022-08-19T21:08:41;9.00;;;3.80;;
56413;SDS011;42318;48.452;19.526;2022-08-19T21:16:12;7.97;;;3.40;;
56413;SDS011;42318;48.452;19.526;2022-08-19T21:23:43;6.13;;;3.30;;
56413;SDS011;42318;48.452;19.526;2022-08-19T21:31:14;8.60;;;4.63;;
56413;SDS011;42318;48.452;19.526;2022-08-19T21:38:47;5.10;;;3.65;;
56413;SDS011;42318;48.452;19.526;2022-08-19T21:46:17;10.13;;;3.70;;
56413;SDS011;42318;48.452;19.526;2022-08-19T21:53:48;11.20;;;4.33;;
56413;SDS011;42318;48.452;19.526;2022-08-19T22:01:19;7.13;;;3.93;;
56413;SDS011;42318;48.452;19.526;2022-08-19T22:08:49;7.23;;;3.80;;
56413;SDS011;42318;48.452;19.526;2022-08-19T22:16:21;7.07;;;3.75;;
56413;SDS011;42318;48.452;19.526;2022-08-19T22:23:53;7.82;;;4.25;;
56413;SDS011;42318;48.452;19.526;2022-08-19T22:31:24;11.63;;;3.63;;
56413;SDS011;42318;48.452;19.526;2022-08-19T22:38:55;12.43;;;4.03;;
56413;SDS011;42318;48.452;19.526;2022-08-19T22:46:25;9.60;;;3.27;;
56413;SDS011;42318;48.452;19.526;2022-08-19T22:53:56;7.97;;;2.90;;
56413;SDS011;42318;48.452;19.526;2022-08-19T23:01:27;11.30;;;3.90;;
56413;SDS011;42318;48.452;19.526;2022-08-19T23:08:58;9.73;;;2.80;;
56413;SDS011;42318;48.452;19.526;2022-08-19T23:16:29;8.03;;;2.80;;
56413;SDS011;42318;48.452;19.526;2022-08-19T23:24:00;11.25;;;3.05;;
56413;SDS011;42318;48.452;19.526;2022-08-19T23:31:31;5.97;;;2.80;;
56413;SDS011;42318;48.452;19.526;2022-08-19T23:39:02;9.43;;;3.77;;
56413;SDS011;42318;48.452;19.526;2022-08-19T23:46:33;7.33;;;3.07;;
56413;SDS011;42318;48.452;19.526;2022-08-19T23:54:05;5.40;;;2.70;;
